sensor_id;sensor_type;location;lat;lon;timestamp;temperature;humidity
42905;DHT22;28550;51.228;4.528;2022-08-21T00:01:48;15.10;96.80
42905;DHT22;28550;51.228;4.528;2022-08-21T00:04:13;15.10;96.50
42905;DHT22;28550;51.228;4.528;2022-08-21T00:06:39;15.00;97.00
42905;DHT22;28550;51.228;4.528;2022-08-21T00:09:06;15.00;97.40
42905;DHT22;28550;51.228;4.528;2022-08-21T00:11:32;15.00;97.10
42905;DHT22;28550;51.228;4.528;2022-08-21T00:13:58;15.00;97.80
42905;DHT22;28550;51.228;4.528;2022-08-21T00:16:26;14.90;97.00
42905;DHT22;28550;51.228;4.528;2022-08-21T00:18:51;14.90;97.60
42905;DHT22;28550;51.228;4.528;2022-08-21T00:21:17;14.90;97.50
42905;DHT22;28550;51.228;4.528;2022-08-21T00:23:42;14.90;97.40
42905;DHT22;28550;51.228;4.528;2022-08-21T00:26:08;14.90;96.60
42905;DHT22;28550;51.228;4.528;2022-08-21T00:28:34;14.80;98.00
42905;DHT22;28550;51.228;4.528;2022-08-21T00:31:00;14.80;97.50
42905;DHT22;28550;51.228;4.528;2022-08-21T00:33:25;14.80;97.20
42905;DHT22;28550;51.228;4.528;2022-08-21T00:35:51;14.80;97.10
42905;DHT22;28550;51.228;4.528;2022-08-21T00:38:17;14.70;98.40
42905;DHT22;28550;51.228;4.528;2022-08-21T00:40:50;14.80;97.70
42905;DHT22;28550;51.228;4.528;2022-08-21T00:43:27;14.70;98.60
42905;DHT22;28550;51.228;4.528;2022-08-21T00:45:55;14.70;98.10
42905;DHT22;28550;51.228;4.528;2022-08-21T00:48:21;14.70;98.20
42905;DHT22;28550;51.228;4.528;2022-08-21T00:50:53;14.70;98.40
42905;DHT22;28550;51.228;4.528;2022-08-21T00:53:19;14.60;98.80
42905;DHT22;28550;51.228;4.528;2022-08-21T00:55:45;14.70;98.10
42905;DHT22;28550;51.228;4.528;2022-08-21T00:58:11;14.60;98.50
42905;DHT22;28550;51.228;4.528;2022-08-21T01:00:39;14.60;98.50
42905;DHT22;28550;51.228;4.528;2022-08-21T01:03:06;14.50;98.60
42905;DHT22;28550;51.228;4.528;2022-08-21T01:05:32;14.60;98.50
42905;DHT22;28550;51.228;4.528;2022-08-21T01:07:57;14.50;97.50
42905;DHT22;28550;51.228;4.528;2022-08-21T01:10:23;14.50;97.30
42905;DHT22;28550;51.228;4.528;2022-08-21T01:12:49;14.50;97.20
42905;DHT22;28550;51.228;4.528;2022-08-21T01:15:16;14.50;98.30
42905;DHT22;28550;51.228;4.528;2022-08-21T01:17:42;14.50;97.60
42905;DHT22;28550;51.228;4.528;2022-08-21T01:20:08;14.50;96.80
42905;DHT22;28550;51.228;4.528;2022-08-21T01:22:34;14.50;98.00
42905;DHT22;28550;51.228;4.528;2022-08-21T01:25:01;14.40;98.00
42905;DHT22;28550;51.228;4.528;2022-08-21T01:27:26;14.50;98.10
42905;DHT22;28550;51.228;4.528;2022-08-21T01:30:01;14.40;97.20
42905;DHT22;28550;51.228;4.528;2022-08-21T01:32:26;14.40;98.60
42905;DHT22;28550;51.228;4.528;2022-08-21T01:34:52;14.30;97.10
42905;DHT22;28550;51.228;4.528;2022-08-21T01:37:19;14.30;97.40
42905;DHT22;28550;51.228;4.528;2022-08-21T01:39:45;14.40;98.20
42905;DHT22;28550;51.228;4.528;2022-08-21T01:42:11;14.40;98.10
42905;DHT22;28550;51.228;4.528;2022-08-21T01:44:37;14.30;97.90
42905;DHT22;28550;51.228;4.528;2022-08-21T01:47:03;14.20;97.60
42905;DHT22;28550;51.228;4.528;2022-08-21T01:49:29;14.20;98.50
42905;DHT22;28550;51.228;4.528;2022-08-21T01:51:55;14.20;98.30
42905;DHT22;28550;51.228;4.528;2022-08-21T01:54:21;14.20;97.80
42905;DHT22;28550;51.228;4.528;2022-08-21T01:56:47;14.20;98.50
42905;DHT22;28550;51.228;4.528;2022-08-21T01:59:13;14.20;98.50
42905;DHT22;28550;51.228;4.528;2022-08-21T02:01:39;14.20;97.40
42905;DHT22;28550;51.228;4.528;2022-08-21T02:04:06;14.10;98.40
42905;DHT22;28550;51.228;4.528;2022-08-21T02:06:32;14.10;98.50
42905;DHT22;28550;51.228;4.528;2022-08-21T02:08:58;14.10;98.20
42905;DHT22;28550;51.228;4.528;2022-08-21T02:11:23;14.00;97.50
42905;DHT22;28550;51.228;4.528;2022-08-21T02:13:49;14.10;97.50
42905;DHT22;28550;51.228;4.528;2022-08-21T02:16:18;14.00;96.80
42905;DHT22;28550;51.228;4.528;2022-08-21T02:18:44;14.00;98.70
42905;DHT22;28550;51.228;4.528;2022-08-21T02:21:10;13.90;96.70
42905;DHT22;28550;51.228;4.528;2022-08-21T02:23:37;13.90;99.10
42905;DHT22;28550;51.228;4.528;2022-08-21T02:26:03;13.90;99.00
42905;DHT22;28550;51.228;4.528;2022-08-21T02:28:29;13.80;98.60
42905;DHT22;28550;51.228;4.528;2022-08-21T02:30:55;13.90;98.40
42905;DHT22;28550;51.228;4.528;2022-08-21T02:33:21;13.80;98.40
42905;DHT22;28550;51.228;4.528;2022-08-21T02:35:48;13.80;98.70
42905;DHT22;28550;51.228;4.528;2022-08-21T02:38:15;13.80;98.40
42905;DHT22;28550;51.228;4.528;2022-08-21T02:40:42;13.80;98.70
42905;DHT22;28550;51.228;4.528;2022-08-21T02:43:08;13.80;98.60
42905;DHT22;28550;51.228;4.528;2022-08-21T02:45:34;13.80;97.30
42905;DHT22;28550;51.228;4.528;2022-08-21T02:48:02;13.80;98.60
42905;DHT22;28550;51.228;4.528;2022-08-21T02:50:30;13.70;99.10
42905;DHT22;28550;51.228;4.528;2022-08-21T02:52:57;13.60;98.70
42905;DHT22;28550;51.228;4.528;2022-08-21T02:55:23;13.70;99.50
42905;DHT22;28550;51.228;4.528;2022-08-21T02:57:48;13.60;98.90
42905;DHT22;28550;51.228;4.528;2022-08-21T03:00:15;13.60;98.20
42905;DHT22;28550;51.228;4.528;2022-08-21T03:02:41;13.60;98.50
42905;DHT22;28550;51.228;4.528;2022-08-21T03:05:07;13.60;98.50
42905;DHT22;28550;51.228;4.528;2022-08-21T03:07:33;13.70;98.90
42905;DHT22;28550;51.228;4.528;2022-08-21T03:10:00;13.70;97.90
42905;DHT22;28550;51.228;4.528;2022-08-21T03:12:25;13.60;98.30
42905;DHT22;28550;51.228;4.528;2022-08-21T03:14:51;13.60;98.50
42905;DHT22;28550;51.228;4.528;2022-08-21T03:17:16;13.50;97.50
42905;DHT22;28550;51.228;4.528;2022-08-21T03:19:42;13.50;97.90
42905;DHT22;28550;51.228;4.528;2022-08-21T03:22:07;13.50;98.50
42905;DHT22;28550;51.228;4.528;2022-08-21T03:24:33;13.50;98.30
42905;DHT22;28550;51.228;4.528;2022-08-21T03:26:58;13.50;98.40
42905;DHT22;28550;51.228;4.528;2022-08-21T03:29:25;13.40;98.20
42905;DHT22;28550;51.228;4.528;2022-08-21T03:31:50;13.40;97.80
42905;DHT22;28550;51.228;4.528;2022-08-21T03:34:18;13.40;97.80
42905;DHT22;28550;51.228;4.528;2022-08-21T03:36:44;13.40;97.60
42905;DHT22;28550;51.228;4.528;2022-08-21T03:39:09;13.40;97.80
42905;DHT22;28550;51.228;4.528;2022-08-21T03:41:35;13.40;97.80
42905;DHT22;28550;51.228;4.528;2022-08-21T03:44:01;13.50;97.80
42905;DHT22;28550;51.228;4.528;2022-08-21T03:46:26;13.40;98.20
42905;DHT22;28550;51.228;4.528;2022-08-21T03:48:52;13.40;98.50
42905;DHT22;28550;51.228;4.528;2022-08-21T03:51:18;13.40;98.50
42905;DHT22;28550;51.228;4.528;2022-08-21T03:53:43;13.40;99.40
42905;DHT22;28550;51.228;4.528;2022-08-21T03:56:10;13.40;98.10
42905;DHT22;28550;51.228;4.528;2022-08-21T04:01:11;13.30;99.40
42905;DHT22;28550;51.228;4.528;2022-08-21T04:03:38;13.30;97.80
42905;DHT22;28550;51.228;4.528;2022-08-21T04:06:04;13.20;99.10
42905;DHT22;28550;51.228;4.528;2022-08-21T04:08:29;13.20;99.40
42905;DHT22;28550;51.228;4.528;2022-08-21T04:10:55;13.20;98.70
42905;DHT22;28550;51.228;4.528;2022-08-21T04:13:22;13.20;99.10
42905;DHT22;28550;51.228;4.528;2022-08-21T04:15:48;13.20;98.60
42905;DHT22;28550;51.228;4.528;2022-08-21T04:18:13;13.20;97.90
42905;DHT22;28550;51.228;4.528;2022-08-21T04:20:39;13.20;98.10
42905;DHT22;28550;51.228;4.528;2022-08-21T04:23:06;13.20;99.30
42905;DHT22;28550;51.228;4.528;2022-08-21T04:25:31;13.10;98.80
42905;DHT22;28550;51.228;4.528;2022-08-21T04:27:57;13.10;98.80
42905;DHT22;28550;51.228;4.528;2022-08-21T04:30:23;13.20;98.50
42905;DHT22;28550;51.228;4.528;2022-08-21T04:32:49;13.10;99.30
42905;DHT22;28550;51.228;4.528;2022-08-21T04:35:17;13.10;99.20
42905;DHT22;28550;51.228;4.528;2022-08-21T04:37:43;13.10;99.20
42905;DHT22;28550;51.228;4.528;2022-08-21T04:40:09;13.00;98.00
42905;DHT22;28550;51.228;4.528;2022-08-21T04:42:40;13.10;99.40
42905;DHT22;28550;51.228;4.528;2022-08-21T04:45:06;13.10;99.40
42905;DHT22;28550;51.228;4.528;2022-08-21T04:47:32;13.10;98.60
42905;DHT22;28550;51.228;4.528;2022-08-21T04:49:57;13.10;98.80
42905;DHT22;28550;51.228;4.528;2022-08-21T04:52:23;13.10;98.30
42905;DHT22;28550;51.228;4.528;2022-08-21T04:55:05;13.10;99.40
42905;DHT22;28550;51.228;4.528;2022-08-21T04:57:30;13.10;99.80
42905;DHT22;28550;51.228;4.528;2022-08-21T04:59:56;13.20;99.00
42905;DHT22;28550;51.228;4.528;2022-08-21T05:02:21;13.20;99.00
42905;DHT22;28550;51.228;4.528;2022-08-21T05:04:49;13.20;99.10
42905;DHT22;28550;51.228;4.528;2022-08-21T05:07:17;13.20;99.90
42905;DHT22;28550;51.228;4.528;2022-08-21T05:09:44;13.10;99.90
42905;DHT22;28550;51.228;4.528;2022-08-21T05:12:10;13.20;99.50
42905;DHT22;28550;51.228;4.528;2022-08-21T05:14:36;13.20;99.30
42905;DHT22;28550;51.228;4.528;2022-08-21T05:17:02;13.30;99.90
42905;DHT22;28550;51.228;4.528;2022-08-21T05:19:27;13.30;99.90
42905;DHT22;28550;51.228;4.528;2022-08-21T05:21:53;13.40;99.90
42905;DHT22;28550;51.228;4.528;2022-08-21T05:24:19;13.40;99.90
42905;DHT22;28550;51.228;4.528;2022-08-21T05:26:44;13.60;99.90
42905;DHT22;28550;51.228;4.528;2022-08-21T05:29:11;13.60;99.90
42905;DHT22;28550;51.228;4.528;2022-08-21T05:31:37;13.70;99.90
42905;DHT22;28550;51.228;4.528;2022-08-21T05:34:03;13.70;99.90
42905;DHT22;28550;51.228;4.528;2022-08-21T05:36:29;13.70;99.90
42905;DHT22;28550;51.228;4.528;2022-08-21T05:38:56;13.80;99.90
42905;DHT22;28550;51.228;4.528;2022-08-21T05:41:22;13.90;99.90
42905;DHT22;28550;51.228;4.528;2022-08-21T05:43:47;13.90;99.90
42905;DHT22;28550;51.228;4.528;2022-08-21T05:46:13;14.10;99.90
42905;DHT22;28550;51.228;4.528;2022-08-21T05:48:40;14.10;99.90
42905;DHT22;28550;51.228;4.528;2022-08-21T05:51:07;14.20;99.90
42905;DHT22;28550;51.228;4.528;2022-08-21T05:53:32;14.30;99.90
42905;DHT22;28550;51.228;4.528;2022-08-21T05:55:58;14.50;99.90
42905;DHT22;28550;51.228;4.528;2022-08-21T05:58:24;14.60;99.70
42905;DHT22;28550;51.228;4.528;2022-08-21T06:00:49;14.70;99.80
42905;DHT22;28550;51.228;4.528;2022-08-21T06:03:17;14.80;99.90
42905;DHT22;28550;51.228;4.528;2022-08-21T06:05:43;14.90;99.90
42905;DHT22;28550;51.228;4.528;2022-08-21T06:08:09;15.20;97.30
42905;DHT22;28550;51.228;4.528;2022-08-21T06:10:34;15.30;97.00
42905;DHT22;28550;51.228;4.528;2022-08-21T06:13:00;15.40;97.00
42905;DHT22;28550;51.228;4.528;2022-08-21T06:15:25;15.50;96.40
42905;DHT22;28550;51.228;4.528;2022-08-21T06:17:51;15.70;96.30
42905;DHT22;28550;51.228;4.528;2022-08-21T06:20:17;16.00;95.10
42905;DHT22;28550;51.228;4.528;2022-08-21T06:22:43;16.20;93.50
42905;DHT22;28550;51.228;4.528;2022-08-21T06:25:11;16.50;92.90
42905;DHT22;28550;51.228;4.528;2022-08-21T06:27:36;16.80;92.20
42905;DHT22;28550;51.228;4.528;2022-08-21T06:30:03;17.10;84.00
42905;DHT22;28550;51.228;4.528;2022-08-21T06:32:29;17.30;82.30
42905;DHT22;28550;51.228;4.528;2022-08-21T06:34:54;17.70;71.30
42905;DHT22;28550;51.228;4.528;2022-08-21T06:37:20;18.00;60.00
42905;DHT22;28550;51.228;4.528;2022-08-21T06:39:49;18.40;44.90
42905;DHT22;28550;51.228;4.528;2022-08-21T06:42:15;18.90;30.70
42905;DHT22;28550;51.228;4.528;2022-08-21T06:44:41;19.30;21.70
42905;DHT22;28550;51.228;4.528;2022-08-21T06:47:06;19.70;2.90
42905;DHT22;28550;51.228;4.528;2022-08-21T06:49:33;20.20;1.00
42905;DHT22;28550;51.228;4.528;2022-08-21T06:51:59;20.70;1.00
42905;DHT22;28550;51.228;4.528;2022-08-21T06:54:24;21.20;99.90
42905;DHT22;28550;51.228;4.528;2022-08-21T06:56:50;21.60;1.00
42905;DHT22;28550;51.228;4.528;2022-08-21T06:59:15;22.00;99.90
42905;DHT22;28550;51.228;4.528;2022-08-21T07:01:41;22.30;1.00
42905;DHT22;28550;51.228;4.528;2022-08-21T07:04:06;22.50;1.00
42905;DHT22;28550;51.228;4.528;2022-08-21T07:06:32;22.40;99.90
42905;DHT22;28550;51.228;4.528;2022-08-21T07:08:58;22.50;99.90
42905;DHT22;28550;51.228;4.528;2022-08-21T07:11:24;22.80;93.30
42905;DHT22;28550;51.228;4.528;2022-08-21T07:13:50;23.00;99.90
42905;DHT22;28550;51.228;4.528;2022-08-21T07:16:18;23.10;99.90
42905;DHT22;28550;51.228;4.528;2022-08-21T07:18:46;23.50;1.00
42905;DHT22;28550;51.228;4.528;2022-08-21T07:21:14;23.80;99.90
42905;DHT22;28550;51.228;4.528;2022-08-21T07:23:47;24.00;99.90
42905;DHT22;28550;51.228;4.528;2022-08-21T07:26:14;24.20;1.00
42905;DHT22;28550;51.228;4.528;2022-08-21T07:28:40;24.60;1.00
42905;DHT22;28550;51.228;4.528;2022-08-21T07:31:06;24.90;99.90
42905;DHT22;28550;51.228;4.528;2022-08-21T07:33:34;25.30;1.00
42905;DHT22;28550;51.228;4.528;2022-08-21T07:36:00;25.50;99.90
42905;DHT22;28550;51.228;4.528;2022-08-21T07:38:26;25.80;99.90
42905;DHT22;28550;51.228;4.528;2022-08-21T07:40:52;26.10;1.00
42905;DHT22;28550;51.228;4.528;2022-08-21T07:43:19;26.20;1.00
42905;DHT22;28550;51.228;4.528;2022-08-21T07:45:45;26.20;99.90
42905;DHT22;28550;51.228;4.528;2022-08-21T07:48:10;26.50;99.90
42905;DHT22;28550;51.228;4.528;2022-08-21T07:50:40;26.40;99.90
42905;DHT22;28550;51.228;4.528;2022-08-21T07:53:07;26.50;99.90
42905;DHT22;28550;51.228;4.528;2022-08-21T07:55:33;26.60;99.90
42905;DHT22;28550;51.228;4.528;2022-08-21T07:57:59;26.70;1.00
42905;DHT22;28550;51.228;4.528;2022-08-21T08:00:26;26.70;1.00
42905;DHT22;28550;51.228;4.528;2022-08-21T08:02:55;27.00;1.00
42905;DHT22;28550;51.228;4.528;2022-08-21T08:05:25;27.00;1.00
42905;DHT22;28550;51.228;4.528;2022-08-21T08:07:51;27.20;1.00
42905;DHT22;28550;51.228;4.528;2022-08-21T08:10:17;27.10;1.00
42905;DHT22;28550;51.228;4.528;2022-08-21T08:12:42;26.80;1.00
42905;DHT22;28550;51.228;4.528;2022-08-21T08:15:10;26.50;1.00
42905;DHT22;28550;51.228;4.528;2022-08-21T08:17:37;26.20;1.00
42905;DHT22;28550;51.228;4.528;2022-08-21T08:20:04;26.10;1.00
42905;DHT22;28550;51.228;4.528;2022-08-21T08:22:30;26.20;1.00
42905;DHT22;28550;51.228;4.528;2022-08-21T08:24:56;26.20;1.00
42905;DHT22;28550;51.228;4.528;2022-08-21T08:27:22;26.10;1.00
42905;DHT22;28550;51.228;4.528;2022-08-21T08:30:00;26.10;1.00
42905;DHT22;28550;51.228;4.528;2022-08-21T08:32:28;26.10;1.00
42905;DHT22;28550;51.228;4.528;2022-08-21T08:34:54;26.20;1.00
42905;DHT22;28550;51.228;4.528;2022-08-21T08:37:20;26.30;1.00
42905;DHT22;28550;51.228;4.528;2022-08-21T08:39:46;26.50;1.00
42905;DHT22;28550;51.228;4.528;2022-08-21T08:42:13;26.60;1.00
42905;DHT22;28550;51.228;4.528;2022-08-21T08:44:43;26.60;1.00
42905;DHT22;28550;51.228;4.528;2022-08-21T08:47:10;26.70;1.00
42905;DHT22;28550;51.228;4.528;2022-08-21T08:52:22;27.50;1.00
42905;DHT22;28550;51.228;4.528;2022-08-21T08:54:51;28.10;1.00
42905;DHT22;28550;51.228;4.528;2022-08-21T08:57:18;28.60;99.90
42905;DHT22;28550;51.228;4.528;2022-08-21T08:59:45;29.40;99.90
42905;DHT22;28550;51.228;4.528;2022-08-21T09:02:15;29.80;99.90
42905;DHT22;28550;51.228;4.528;2022-08-21T09:04:41;30.10;99.90
42905;DHT22;28550;51.228;4.528;2022-08-21T09:10:20;30.10;99.90
42905;DHT22;28550;51.228;4.528;2022-08-21T09:12:56;30.00;99.90
42905;DHT22;28550;51.228;4.528;2022-08-21T09:23:33;28.90;99.90
42905;DHT22;28550;51.228;4.528;2022-08-21T09:26:11;28.30;99.90
42905;DHT22;28550;51.228;4.528;2022-08-21T09:28:37;27.60;99.90
42905;DHT22;28550;51.228;4.528;2022-08-21T09:31:06;27.30;99.90
42905;DHT22;28550;51.228;4.528;2022-08-21T09:33:32;27.60;99.90
42905;DHT22;28550;51.228;4.528;2022-08-21T09:35:58;28.60;99.90
42905;DHT22;28550;51.228;4.528;2022-08-21T09:38:24;29.80;99.90
42905;DHT22;28550;51.228;4.528;2022-08-21T09:40:57;30.30;99.90
42905;DHT22;28550;51.228;4.528;2022-08-21T09:43:24;29.80;99.90
42905;DHT22;28550;51.228;4.528;2022-08-21T09:46:03;29.70;99.90
42905;DHT22;28550;51.228;4.528;2022-08-21T09:48:29;29.80;99.90
42905;DHT22;28550;51.228;4.528;2022-08-21T09:51:08;29.40;99.90
42905;DHT22;28550;51.228;4.528;2022-08-21T09:53:34;29.40;99.90
42905;DHT22;28550;51.228;4.528;2022-08-21T09:56:27;29.70;99.90
42905;DHT22;28550;51.228;4.528;2022-08-21T09:59:17;30.10;99.90
42905;DHT22;28550;51.228;4.528;2022-08-21T10:01:49;30.20;99.90
42905;DHT22;28550;51.228;4.528;2022-08-21T10:04:15;29.70;99.90
42905;DHT22;28550;51.228;4.528;2022-08-21T10:06:44;29.40;99.90
42905;DHT22;28550;51.228;4.528;2022-08-21T10:09:11;28.80;99.90
42905;DHT22;28550;51.228;4.528;2022-08-21T10:11:44;28.00;99.90
42905;DHT22;28550;51.228;4.528;2022-08-21T10:14:15;27.30;99.90
42905;DHT22;28550;51.228;4.528;2022-08-21T10:21:53;25.50;99.90
42905;DHT22;28550;51.228;4.528;2022-08-21T10:26:55;25.60;99.90
42905;DHT22;28550;51.228;4.528;2022-08-21T10:32:23;27.90;99.90
42905;DHT22;28550;51.228;4.528;2022-08-21T10:37:39;31.00;99.90
42905;DHT22;28550;51.228;4.528;2022-08-21T10:40:12;32.00;99.90
42905;DHT22;28550;51.228;4.528;2022-08-21T10:45:30;32.40;99.90
42905;DHT22;28550;51.228;4.528;2022-08-21T10:48:02;31.80;99.90
42905;DHT22;28550;51.228;4.528;2022-08-21T10:53:04;30.00;99.90
42905;DHT22;28550;51.228;4.528;2022-08-21T10:55:44;30.40;99.90
42905;DHT22;28550;51.228;4.528;2022-08-21T11:01:08;30.30;99.90
42905;DHT22;28550;51.228;4.528;2022-08-21T11:03:41;29.90;99.90
42905;DHT22;28550;51.228;4.528;2022-08-21T11:06:13;30.30;99.90
42905;DHT22;28550;51.228;4.528;2022-08-21T11:08:42;31.20;99.90
42905;DHT22;28550;51.228;4.528;2022-08-21T11:11:10;32.00;99.90
42905;DHT22;28550;51.228;4.528;2022-08-21T11:13:42;32.10;99.90
42905;DHT22;28550;51.228;4.528;2022-08-21T11:18:39;30.70;99.90
42905;DHT22;28550;51.228;4.528;2022-08-21T11:26:38;29.60;99.90
42905;DHT22;28550;51.228;4.528;2022-08-21T11:29:28;29.90;99.90
42905;DHT22;28550;51.228;4.528;2022-08-21T11:32:00;29.90;99.90
42905;DHT22;28550;51.228;4.528;2022-08-21T11:39:35;29.90;99.90
42905;DHT22;28550;51.228;4.528;2022-08-21T11:50:13;32.30;99.90
42905;DHT22;28550;51.228;4.528;2022-08-21T11:52:43;32.30;99.90
42905;DHT22;28550;51.228;4.528;2022-08-21T11:55:26;32.20;99.90
42905;DHT22;28550;51.228;4.528;2022-08-21T11:57:55;31.70;99.90
42905;DHT22;28550;51.228;4.528;2022-08-21T12:00:57;32.20;97.20
42905;DHT22;28550;51.228;4.528;2022-08-21T12:08:57;30.70;98.50
42905;DHT22;28550;51.228;4.528;2022-08-21T12:11:24;30.80;99.90
42905;DHT22;28550;51.228;4.528;2022-08-21T12:13:54;30.90;97.90
42905;DHT22;28550;51.228;4.528;2022-08-21T12:16:31;30.20;99.70
42905;DHT22;28550;51.228;4.528;2022-08-21T12:19:11;29.70;99.90
42905;DHT22;28550;51.228;4.528;2022-08-21T12:22:06;29.60;99.90
42905;DHT22;28550;51.228;4.528;2022-08-21T12:24:37;29.80;99.90
42905;DHT22;28550;51.228;4.528;2022-08-21T12:27:21;29.40;94.00
42905;DHT22;28550;51.228;4.528;2022-08-21T12:29:54;28.70;99.90
42905;DHT22;28550;51.228;4.528;2022-08-21T12:32:22;28.10;97.20
42905;DHT22;28550;51.228;4.528;2022-08-21T12:38:32;27.30;99.90
42905;DHT22;28550;51.228;4.528;2022-08-21T12:40:41;27.00;99.90
42905;DHT22;28550;51.228;4.528;2022-08-21T12:43:11;26.90;99.90
42905;DHT22;28550;51.228;4.528;2022-08-21T12:45:42;28.50;99.90
42905;DHT22;28550;51.228;4.528;2022-08-21T12:48:14;30.20;99.90
42905;DHT22;28550;51.228;4.528;2022-08-21T12:50:51;31.50;99.90
42905;DHT22;28550;51.228;4.528;2022-08-21T12:53:23;31.00;99.90
42905;DHT22;28550;51.228;4.528;2022-08-21T12:55:53;30.20;99.90
42905;DHT22;28550;51.228;4.528;2022-08-21T12:58:26;29.50;99.90
42905;DHT22;28550;51.228;4.528;2022-08-21T13:01:20;28.70;97.90
42905;DHT22;28550;51.228;4.528;2022-08-21T13:03:49;28.10;99.40
42905;DHT22;28550;51.228;4.528;2022-08-21T13:06:19;27.70;97.50
42905;DHT22;28550;51.228;4.528;2022-08-21T13:08:47;27.30;95.10
42905;DHT22;28550;51.228;4.528;2022-08-21T13:11:14;27.10;95.30
42905;DHT22;28550;51.228;4.528;2022-08-21T13:13:41;26.90;91.50
42905;DHT22;28550;51.228;4.528;2022-08-21T13:16:13;26.80;93.80
42905;DHT22;28550;51.228;4.528;2022-08-21T13:21:39;26.70;99.90
42905;DHT22;28550;51.228;4.528;2022-08-21T13:26:40;27.60;99.90
42905;DHT22;28550;51.228;4.528;2022-08-21T13:29:10;27.70;95.10
42905;DHT22;28550;51.228;4.528;2022-08-21T13:31:36;27.70;99.90
42905;DHT22;28550;51.228;4.528;2022-08-21T13:34:03;27.60;99.90
42905;DHT22;28550;51.228;4.528;2022-08-21T13:36:30;27.40;99.90
42905;DHT22;28550;51.228;4.528;2022-08-21T13:38:57;27.00;99.90
42905;DHT22;28550;51.228;4.528;2022-08-21T13:41:30;26.90;93.70
42905;DHT22;28550;51.228;4.528;2022-08-21T13:44:57;26.70;99.90
42905;DHT22;28550;51.228;4.528;2022-08-21T13:46:53;26.50;99.90
42905;DHT22;28550;51.228;4.528;2022-08-21T13:49:20;26.40;99.90
42905;DHT22;28550;51.228;4.528;2022-08-21T13:51:47;26.30;99.90
42905;DHT22;28550;51.228;4.528;2022-08-21T13:54:15;26.50;99.90
42905;DHT22;28550;51.228;4.528;2022-08-21T13:56:42;26.70;99.90
42905;DHT22;28550;51.228;4.528;2022-08-21T13:59:08;26.80;99.90
42905;DHT22;28550;51.228;4.528;2022-08-21T14:01:53;26.70;99.90
42905;DHT22;28550;51.228;4.528;2022-08-21T14:04:23;27.10;99.90
42905;DHT22;28550;51.228;4.528;2022-08-21T14:06:53;27.60;99.90
42905;DHT22;28550;51.228;4.528;2022-08-21T14:11:44;27.60;93.20
42905;DHT22;28550;51.228;4.528;2022-08-21T14:14:22;27.40;99.10
42905;DHT22;28550;51.228;4.528;2022-08-21T14:16:58;27.20;99.90
42905;DHT22;28550;51.228;4.528;2022-08-21T14:19:26;26.90;99.90
42905;DHT22;28550;51.228;4.528;2022-08-21T14:21:52;26.70;99.90
42905;DHT22;28550;51.228;4.528;2022-08-21T14:26:50;26.50;99.90
42905;DHT22;28550;51.228;4.528;2022-08-21T14:29:19;26.50;99.90
42905;DHT22;28550;51.228;4.528;2022-08-21T14:31:57;26.90;99.90
42905;DHT22;28550;51.228;4.528;2022-08-21T14:34:28;28.40;99.90
42905;DHT22;28550;51.228;4.528;2022-08-21T14:36:54;30.90;99.90
42905;DHT22;28550;51.228;4.528;2022-08-21T14:39:20;32.20;96.00
42905;DHT22;28550;51.228;4.528;2022-08-21T14:41:46;33.10;86.50
42905;DHT22;28550;51.228;4.528;2022-08-21T14:44:14;33.40;88.60
42905;DHT22;28550;51.228;4.528;2022-08-21T14:46:39;33.50;97.50
42905;DHT22;28550;51.228;4.528;2022-08-21T14:49:05;34.00;60.80
42905;DHT22;28550;51.228;4.528;2022-08-21T14:51:31;33.70;54.30
42905;DHT22;28550;51.228;4.528;2022-08-21T14:53:58;33.50;51.20
42905;DHT22;28550;51.228;4.528;2022-08-21T14:56:23;33.10;80.50
42905;DHT22;28550;51.228;4.528;2022-08-21T14:58:50;33.10;52.20
42905;DHT22;28550;51.228;4.528;2022-08-21T15:01:17;33.40;69.20
42905;DHT22;28550;51.228;4.528;2022-08-21T15:03:46;32.80;68.60
42905;DHT22;28550;51.228;4.528;2022-08-21T15:06:13;32.40;60.10
42905;DHT22;28550;51.228;4.528;2022-08-21T15:08:39;31.60;54.90
42905;DHT22;28550;51.228;4.528;2022-08-21T15:11:05;30.60;48.80
42905;DHT22;28550;51.228;4.528;2022-08-21T15:13:31;29.70;77.10
42905;DHT22;28550;51.228;4.528;2022-08-21T15:15:57;29.50;49.70
42905;DHT22;28550;51.228;4.528;2022-08-21T15:18:26;29.10;73.90
42905;DHT22;28550;51.228;4.528;2022-08-21T15:20:52;28.60;94.40
42905;DHT22;28550;51.228;4.528;2022-08-21T15:23:17;28.10;61.60
42905;DHT22;28550;51.228;4.528;2022-08-21T15:25:43;27.60;74.30
42905;DHT22;28550;51.228;4.528;2022-08-21T15:28:10;27.40;93.50
42905;DHT22;28550;51.228;4.528;2022-08-21T15:30:37;27.40;96.50
42905;DHT22;28550;51.228;4.528;2022-08-21T15:33:02;27.20;93.80
42905;DHT22;28550;51.228;4.528;2022-08-21T15:35:28;27.40;56.80
42905;DHT22;28550;51.228;4.528;2022-08-21T15:37:53;27.10;84.10
42905;DHT22;28550;51.228;4.528;2022-08-21T15:40:19;27.20;59.30
42905;DHT22;28550;51.228;4.528;2022-08-21T15:42:45;27.30;69.20
42905;DHT22;28550;51.228;4.528;2022-08-21T15:45:11;27.40;66.70
42905;DHT22;28550;51.228;4.528;2022-08-21T15:47:38;27.30;91.00
42905;DHT22;28550;51.228;4.528;2022-08-21T15:50:10;27.20;94.20
42905;DHT22;28550;51.228;4.528;2022-08-21T15:52:36;26.90;98.10
42905;DHT22;28550;51.228;4.528;2022-08-21T15:55:03;26.70;85.30
42905;DHT22;28550;51.228;4.528;2022-08-21T15:57:29;26.70;99.90
42905;DHT22;28550;51.228;4.528;2022-08-21T16:03:05;26.60;99.90
42905;DHT22;28550;51.228;4.528;2022-08-21T16:05:32;26.50;99.90
42905;DHT22;28550;51.228;4.528;2022-08-21T16:07:58;26.50;95.50
42905;DHT22;28550;51.228;4.528;2022-08-21T16:10:24;26.30;94.80
42905;DHT22;28550;51.228;4.528;2022-08-21T16:12:51;26.20;99.90
42905;DHT22;28550;51.228;4.528;2022-08-21T16:15:18;26.10;99.90
42905;DHT22;28550;51.228;4.528;2022-08-21T16:17:45;26.10;99.90
42905;DHT22;28550;51.228;4.528;2022-08-21T16:20:15;26.00;99.90
42905;DHT22;28550;51.228;4.528;2022-08-21T16:22:41;26.00;99.90
42905;DHT22;28550;51.228;4.528;2022-08-21T16:25:06;25.90;99.60
42905;DHT22;28550;51.228;4.528;2022-08-21T16:27:33;25.90;99.90
42905;DHT22;28550;51.228;4.528;2022-08-21T16:29:59;25.80;99.90
42905;DHT22;28550;51.228;4.528;2022-08-21T16:32:30;25.50;99.90
42905;DHT22;28550;51.228;4.528;2022-08-21T16:34:58;25.10;99.90
42905;DHT22;28550;51.228;4.528;2022-08-21T16:37:26;24.80;99.90
42905;DHT22;28550;51.228;4.528;2022-08-21T16:39:54;24.70;99.90
42905;DHT22;28550;51.228;4.528;2022-08-21T16:42:27;24.40;99.90
42905;DHT22;28550;51.228;4.528;2022-08-21T16:44:53;24.30;99.90
42905;DHT22;28550;51.228;4.528;2022-08-21T16:50:24;23.90;99.90
42905;DHT22;28550;51.228;4.528;2022-08-21T16:52:58;23.70;99.90
42905;DHT22;28550;51.228;4.528;2022-08-21T16:55:28;23.60;99.90
42905;DHT22;28550;51.228;4.528;2022-08-21T16:57:54;23.60;99.90
42905;DHT22;28550;51.228;4.528;2022-08-21T17:00:20;23.50;99.90
42905;DHT22;28550;51.228;4.528;2022-08-21T17:02:46;23.80;99.90